sensor_id;sensor_type;location;lat;lon;timestamp;P1;durP1;ratioP1;P2;durP2;ratioP2
68050;SDS011;54839;51.364;7.246;2023-05-07T00:01:42;6.57;;;5.87;;
68050;SDS011;54839;51.364;7.246;2023-05-07T00:04:08;6.77;;;5.43;;
68050;SDS011;54839;51.364;7.246;2023-05-07T00:06:33;7.23;;;4.83;;
68050;SDS011;54839;51.364;7.246;2023-05-07T00:08:59;7.37;;;6.40;;
68050;SDS011;54839;51.364;7.246;2023-05-07T00:11:25;9.53;;;6.33;;
68050;SDS011;54839;51.364;7.246;2023-05-07T00:13:51;7.13;;;6.40;;
68050;SDS011;54839;51.364;7.246;2023-05-07T00:16:17;6.57;;;5.90;;
68050;SDS011;54839;51.364;7.246;2023-05-07T00:18:43;8.40;;;6.90;;
68050;SDS011;54839;51.364;7.246;2023-05-07T00:21:10;8.33;;;5.43;;
68050;SDS011;54839;51.364;7.246;2023-05-07T00:23:35;5.90;;;5.40;;
68050;SDS011;54839;51.364;7.246;2023-05-07T00:26:01;6.97;;;6.23;;
68050;SDS011;54839;51.364;7.246;2023-05-07T00:28:27;5.63;;;5.03;;
68050;SDS011;54839;51.364;7.246;2023-05-07T00:30:53;6.50;;;5.90;;
68050;SDS011;54839;51.364;7.246;2023-05-07T00:33:19;7.03;;;6.23;;
68050;SDS011;54839;51.364;7.246;2023-05-07T00:35:45;7.47;;;6.20;;
68050;SDS011;54839;51.364;7.246;2023-05-07T00:38:11;5.90;;;5.40;;
68050;SDS011;54839;51.364;7.246;2023-05-07T00:40:36;6.57;;;5.90;;
68050;SDS011;54839;51.364;7.246;2023-05-07T00:43:02;6.40;;;5.53;;
68050;SDS011;54839;51.364;7.246;2023-05-07T00:45:28;6.07;;;5.57;;
68050;SDS011;54839;51.364;7.246;2023-05-07T00:47:54;6.43;;;5.60;;
68050;SDS011;54839;51.364;7.246;2023-05-07T00:50:22;6.53;;;5.67;;
68050;SDS011;54839;51.364;7.246;2023-05-07T00:52:48;5.33;;;4.40;;
68050;SDS011;54839;51.364;7.246;2023-05-07T00:55:13;9.40;;;7.37;;
68050;SDS011;54839;51.364;7.246;2023-05-07T00:57:40;6.10;;;5.47;;
68050;SDS011;54839;51.364;7.246;2023-05-07T01:00:06;6.40;;;5.23;;
68050;SDS011;54839;51.364;7.246;2023-05-07T01:02:38;6.70;;;5.77;;
68050;SDS011;54839;51.364;7.246;2023-05-07T01:05:04;6.23;;;5.40;;
68050;SDS011;54839;51.364;7.246;2023-05-07T01:07:32;7.90;;;7.20;;
68050;SDS011;54839;51.364;7.246;2023-05-07T01:09:59;7.10;;;6.50;;
68050;SDS011;54839;51.364;7.246;2023-05-07T01:12:25;7.77;;;7.07;;
68050;SDS011;54839;51.364;7.246;2023-05-07T01:14:52;7.43;;;6.80;;
68050;SDS011;54839;51.364;7.246;2023-05-07T01:17:18;7.70;;;6.47;;
68050;SDS011;54839;51.364;7.246;2023-05-07T01:19:44;8.97;;;6.10;;
68050;SDS011;54839;51.364;7.246;2023-05-07T01:22:10;8.00;;;5.77;;
68050;SDS011;54839;51.364;7.246;2023-05-07T01:24:39;6.57;;;5.93;;
68050;SDS011;54839;51.364;7.246;2023-05-07T01:27:06;9.83;;;6.40;;
68050;SDS011;54839;51.364;7.246;2023-05-07T01:29:31;7.00;;;6.30;;
68050;SDS011;54839;51.364;7.246;2023-05-07T01:31:58;9.27;;;5.80;;
68050;SDS011;54839;51.364;7.246;2023-05-07T01:34:25;5.27;;;4.87;;
68050;SDS011;54839;51.364;7.246;2023-05-07T01:36:56;5.93;;;4.93;;
68050;SDS011;54839;51.364;7.246;2023-05-07T01:39:24;5.70;;;5.00;;
68050;SDS011;54839;51.364;7.246;2023-05-07T01:41:51;5.90;;;5.37;;
68050;SDS011;54839;51.364;7.246;2023-05-07T01:44:21;6.33;;;5.23;;
68050;SDS011;54839;51.364;7.246;2023-05-07T01:46:47;6.47;;;5.87;;
68050;SDS011;54839;51.364;7.246;2023-05-07T01:49:14;7.63;;;6.17;;
68050;SDS011;54839;51.364;7.246;2023-05-07T01:51:40;6.33;;;5.70;;
68050;SDS011;54839;51.364;7.246;2023-05-07T01:54:06;7.73;;;6.67;;
68050;SDS011;54839;51.364;7.246;2023-05-07T01:56:33;5.90;;;4.97;;
68050;SDS011;54839;51.364;7.246;2023-05-07T01:58:58;6.60;;;5.03;;
68050;SDS011;54839;51.364;7.246;2023-05-07T02:01:24;6.60;;;5.80;;
68050;SDS011;54839;51.364;7.246;2023-05-07T02:03:50;5.30;;;4.80;;
68050;SDS011;54839;51.364;7.246;2023-05-07T02:06:15;6.33;;;4.97;;
68050;SDS011;54839;51.364;7.246;2023-05-07T02:08:41;12.00;;;5.33;;
68050;SDS011;54839;51.364;7.246;2023-05-07T02:11:06;7.63;;;5.77;;
68050;SDS011;54839;51.364;7.246;2023-05-07T02:13:33;7.90;;;5.07;;
68050;SDS011;54839;51.364;7.246;2023-05-07T02:16:02;10.43;;;4.80;;
68050;SDS011;54839;51.364;7.246;2023-05-07T02:18:28;5.33;;;4.23;;
68050;SDS011;54839;51.364;7.246;2023-05-07T02:20:54;4.80;;;4.33;;
68050;SDS011;54839;51.364;7.246;2023-05-07T02:23:19;4.30;;;3.63;;
68050;SDS011;54839;51.364;7.246;2023-05-07T02:25:45;3.70;;;3.40;;
68050;SDS011;54839;51.364;7.246;2023-05-07T02:28:11;7.53;;;4.13;;
68050;SDS011;54839;51.364;7.246;2023-05-07T02:30:37;6.90;;;4.30;;
68050;SDS011;54839;51.364;7.246;2023-05-07T02:33:04;6.73;;;4.43;;
68050;SDS011;54839;51.364;7.246;2023-05-07T02:35:29;4.40;;;4.00;;
68050;SDS011;54839;51.364;7.246;2023-05-07T02:37:55;5.27;;;4.77;;
68050;SDS011;54839;51.364;7.246;2023-05-07T02:40:20;9.00;;;4.23;;
68050;SDS011;54839;51.364;7.246;2023-05-07T02:42:46;5.43;;;4.40;;
68050;SDS011;54839;51.364;7.246;2023-05-07T02:45:12;4.03;;;3.73;;
68050;SDS011;54839;51.364;7.246;2023-05-07T02:47:37;4.17;;;3.60;;
68050;SDS011;54839;51.364;7.246;2023-05-07T02:50:03;4.40;;;4.00;;
68050;SDS011;54839;51.364;7.246;2023-05-07T02:52:29;4.83;;;4.10;;
68050;SDS011;54839;51.364;7.246;2023-05-07T02:54:54;3.67;;;3.37;;
68050;SDS011;54839;51.364;7.246;2023-05-07T02:57:20;4.20;;;3.73;;
68050;SDS011;54839;51.364;7.246;2023-05-07T02:59:45;4.07;;;3.50;;
68050;SDS011;54839;51.364;7.246;2023-05-07T03:02:11;5.43;;;3.07;;
68050;SDS011;54839;51.364;7.246;2023-05-07T03:04:37;8.03;;;3.73;;
68050;SDS011;54839;51.364;7.246;2023-05-07T03:07:03;5.50;;;4.10;;
68050;SDS011;54839;51.364;7.246;2023-05-07T03:09:29;3.67;;;3.27;;
68050;SDS011;54839;51.364;7.246;2023-05-07T03:11:54;3.30;;;3.00;;
68050;SDS011;54839;51.364;7.246;2023-05-07T03:14:21;5.97;;;3.60;;
68050;SDS011;54839;51.364;7.246;2023-05-07T03:16:47;5.07;;;3.50;;
68050;SDS011;54839;51.364;7.246;2023-05-07T03:19:12;3.80;;;3.37;;
68050;SDS011;54839;51.364;7.246;2023-05-07T03:21:38;3.73;;;3.30;;
68050;SDS011;54839;51.364;7.246;2023-05-07T03:24:03;4.37;;;3.33;;
68050;SDS011;54839;51.364;7.246;2023-05-07T03:26:29;4.70;;;4.07;;
68050;SDS011;54839;51.364;7.246;2023-05-07T03:28:55;5.80;;;4.20;;
68050;SDS011;54839;51.364;7.246;2023-05-07T03:31:20;4.50;;;3.40;;
68050;SDS011;54839;51.364;7.246;2023-05-07T03:34:04;3.87;;;3.57;;
68050;SDS011;54839;51.364;7.246;2023-05-07T03:36:30;3.50;;;3.20;;
68050;SDS011;54839;51.364;7.246;2023-05-07T03:38:55;3.40;;;3.10;;
68050;SDS011;54839;51.364;7.246;2023-05-07T03:41:21;4.20;;;3.47;;
68050;SDS011;54839;51.364;7.246;2023-05-07T03:43:46;3.80;;;3.43;;
68050;SDS011;54839;51.364;7.246;2023-05-07T03:46:12;4.30;;;3.20;;
68050;SDS011;54839;51.364;7.246;2023-05-07T03:48:38;3.73;;;3.40;;
68050;SDS011;54839;51.364;7.246;2023-05-07T03:51:03;5.10;;;4.23;;
68050;SDS011;54839;51.364;7.246;2023-05-07T03:53:29;3.57;;;3.20;;
68050;SDS011;54839;51.364;7.246;2023-05-07T03:55:54;4.73;;;3.37;;
68050;SDS011;54839;51.364;7.246;2023-05-07T03:58:20;3.63;;;3.33;;
68050;SDS011;54839;51.364;7.246;2023-05-07T04:00:45;3.40;;;3.10;;
68050;SDS011;54839;51.364;7.246;2023-05-07T04:03:11;6.60;;;3.50;;
68050;SDS011;54839;51.364;7.246;2023-05-07T04:05:36;6.20;;;3.30;;
68050;SDS011;54839;51.364;7.246;2023-05-07T04:08:02;4.37;;;3.70;;
68050;SDS011;54839;51.364;7.246;2023-05-07T04:10:29;8.60;;;3.17;;
68050;SDS011;54839;51.364;7.246;2023-05-07T04:12:54;7.67;;;5.00;;
68050;SDS011;54839;51.364;7.246;2023-05-07T04:15:20;6.23;;;3.97;;
68050;SDS011;54839;51.364;7.246;2023-05-07T04:17:45;5.03;;;4.27;;
68050;SDS011;54839;51.364;7.246;2023-05-07T04:20:14;7.13;;;3.53;;
68050;SDS011;54839;51.364;7.246;2023-05-07T04:22:41;3.53;;;3.00;;
68050;SDS011;54839;51.364;7.246;2023-05-07T04:25:07;4.20;;;3.47;;
68050;SDS011;54839;51.364;7.246;2023-05-07T04:27:36;3.40;;;3.10;;
68050;SDS011;54839;51.364;7.246;2023-05-07T04:30:02;5.40;;;4.47;;
68050;SDS011;54839;51.364;7.246;2023-05-07T04:32:29;3.70;;;3.40;;
68050;SDS011;54839;51.364;7.246;2023-05-07T04:34:55;4.87;;;3.70;;
68050;SDS011;54839;51.364;7.246;2023-05-07T04:37:21;4.07;;;3.50;;
68050;SDS011;54839;51.364;7.246;2023-05-07T04:39:47;4.43;;;4.03;;
68050;SDS011;54839;51.364;7.246;2023-05-07T04:42:16;5.23;;;3.20;;
68050;SDS011;54839;51.364;7.246;2023-05-07T04:44:43;4.63;;;3.57;;
68050;SDS011;54839;51.364;7.246;2023-05-07T04:47:08;4.37;;;3.80;;
68050;SDS011;54839;51.364;7.246;2023-05-07T04:49:34;5.07;;;4.27;;
68050;SDS011;54839;51.364;7.246;2023-05-07T04:52:00;6.20;;;4.03;;
68050;SDS011;54839;51.364;7.246;2023-05-07T04:54:26;4.90;;;4.37;;
68050;SDS011;54839;51.364;7.246;2023-05-07T04:56:51;6.53;;;4.60;;
68050;SDS011;54839;51.364;7.246;2023-05-07T04:59:17;5.00;;;4.60;;
68050;SDS011;54839;51.364;7.246;2023-05-07T05:01:43;8.53;;;4.40;;
68050;SDS011;54839;51.364;7.246;2023-05-07T05:04:08;5.70;;;4.10;;
68050;SDS011;54839;51.364;7.246;2023-05-07T05:06:35;8.07;;;5.87;;
68050;SDS011;54839;51.364;7.246;2023-05-07T05:09:00;11.90;;;4.87;;
68050;SDS011;54839;51.364;7.246;2023-05-07T05:11:26;6.13;;;5.47;;
68050;SDS011;54839;51.364;7.246;2023-05-07T05:13:51;5.20;;;4.70;;
68050;SDS011;54839;51.364;7.246;2023-05-07T05:16:17;5.80;;;5.30;;
68050;SDS011;54839;51.364;7.246;2023-05-07T05:18:42;6.60;;;6.00;;
68050;SDS011;54839;51.364;7.246;2023-05-07T05:21:08;5.30;;;4.73;;
68050;SDS011;54839;51.364;7.246;2023-05-07T05:23:33;5.50;;;5.00;;
68050;SDS011;54839;51.364;7.246;2023-05-07T05:25:59;5.33;;;4.83;;
68050;SDS011;54839;51.364;7.246;2023-05-07T05:28:25;7.20;;;5.40;;
68050;SDS011;54839;51.364;7.246;2023-05-07T05:30:50;6.27;;;5.60;;
68050;SDS011;54839;51.364;7.246;2023-05-07T05:33:16;7.30;;;6.60;;
68050;SDS011;54839;51.364;7.246;2023-05-07T05:35:41;8.43;;;7.07;;
68050;SDS011;54839;51.364;7.246;2023-05-07T05:38:07;7.90;;;7.13;;
68050;SDS011;54839;51.364;7.246;2023-05-07T05:40:33;8.47;;;7.47;;
68050;SDS011;54839;51.364;7.246;2023-05-07T05:42:59;9.07;;;6.97;;
68050;SDS011;54839;51.364;7.246;2023-05-07T05:45:25;6.90;;;6.33;;
68050;SDS011;54839;51.364;7.246;2023-05-07T05:47:50;8.50;;;6.93;;
68050;SDS011;54839;51.364;7.246;2023-05-07T05:50:16;10.50;;;7.40;;
68050;SDS011;54839;51.364;7.246;2023-05-07T05:52:42;13.20;;;7.07;;
68050;SDS011;54839;51.364;7.246;2023-05-07T05:55:08;8.27;;;6.93;;
68050;SDS011;54839;51.364;7.246;2023-05-07T05:57:34;8.80;;;6.87;;
68050;SDS011;54839;51.364;7.246;2023-05-07T06:00:00;7.80;;;5.87;;
68050;SDS011;54839;51.364;7.246;2023-05-07T06:02:26;9.13;;;7.03;;
68050;SDS011;54839;51.364;7.246;2023-05-07T06:04:52;9.87;;;7.60;;
68050;SDS011;54839;51.364;7.246;2023-05-07T06:07:17;6.80;;;6.20;;
68050;SDS011;54839;51.364;7.246;2023-05-07T06:09:43;8.20;;;6.30;;
68050;SDS011;54839;51.364;7.246;2023-05-07T06:12:09;6.23;;;5.57;;
68050;SDS011;54839;51.364;7.246;2023-05-07T06:14:34;6.10;;;5.50;;
68050;SDS011;54839;51.364;7.246;2023-05-07T06:17:00;9.43;;;5.37;;
68050;SDS011;54839;51.364;7.246;2023-05-07T06:19:25;7.83;;;5.50;;
68050;SDS011;54839;51.364;7.246;2023-05-07T06:21:53;6.83;;;5.53;;
68050;SDS011;54839;51.364;7.246;2023-05-07T06:24:18;5.57;;;4.77;;
68050;SDS011;54839;51.364;7.246;2023-05-07T06:26:44;4.87;;;4.23;;
68050;SDS011;54839;51.364;7.246;2023-05-07T06:29:09;8.60;;;4.40;;
68050;SDS011;54839;51.364;7.246;2023-05-07T06:31:35;5.40;;;4.77;;
68050;SDS011;54839;51.364;7.246;2023-05-07T06:34:01;6.43;;;4.97;;
68050;SDS011;54839;51.364;7.246;2023-05-07T06:36:27;5.33;;;3.90;;
68050;SDS011;54839;51.364;7.246;2023-05-07T06:38:53;5.10;;;3.70;;
68050;SDS011;54839;51.364;7.246;2023-05-07T06:41:18;5.67;;;3.70;;
68050;SDS011;54839;51.364;7.246;2023-05-07T06:43:45;7.13;;;4.20;;
68050;SDS011;54839;51.364;7.246;2023-05-07T06:46:11;3.43;;;3.13;;
68050;SDS011;54839;51.364;7.246;2023-05-07T06:48:36;4.37;;;3.97;;
68050;SDS011;54839;51.364;7.246;2023-05-07T06:51:02;4.57;;;3.63;;
68050;SDS011;54839;51.364;7.246;2023-05-07T06:53:27;4.20;;;3.80;;
68050;SDS011;54839;51.364;7.246;2023-05-07T06:55:54;5.20;;;3.93;;
68050;SDS011;54839;51.364;7.246;2023-05-07T06:58:20;4.43;;;3.57;;
68050;SDS011;54839;51.364;7.246;2023-05-07T07:00:45;5.07;;;4.57;;
68050;SDS011;54839;51.364;7.246;2023-05-07T07:03:11;6.50;;;5.63;;
68050;SDS011;54839;51.364;7.246;2023-05-07T07:05:36;5.27;;;3.70;;
68050;SDS011;54839;51.364;7.246;2023-05-07T07:08:02;4.20;;;3.80;;
68050;SDS011;54839;51.364;7.246;2023-05-07T07:10:27;8.97;;;4.70;;
68050;SDS011;54839;51.364;7.246;2023-05-07T07:12:53;7.30;;;4.80;;
68050;SDS011;54839;51.364;7.246;2023-05-07T07:15:19;6.57;;;4.10;;
68050;SDS011;54839;51.364;7.246;2023-05-07T07:17:45;6.80;;;3.70;;
68050;SDS011;54839;51.364;7.246;2023-05-07T07:20:11;4.43;;;4.03;;
68050;SDS011;54839;51.364;7.246;2023-05-07T07:22:37;4.00;;;3.60;;
68050;SDS011;54839;51.364;7.246;2023-05-07T07:25:02;2.60;;;2.40;;
68050;SDS011;54839;51.364;7.246;2023-05-07T07:27:28;6.53;;;3.37;;
68050;SDS011;54839;51.364;7.246;2023-05-07T07:29:54;3.10;;;2.80;;
68050;SDS011;54839;51.364;7.246;2023-05-07T07:32:19;3.80;;;3.10;;
68050;SDS011;54839;51.364;7.246;2023-05-07T07:34:45;4.37;;;2.90;;
68050;SDS011;54839;51.364;7.246;2023-05-07T07:37:11;3.67;;;3.20;;
68050;SDS011;54839;51.364;7.246;2023-05-07T07:39:36;4.90;;;2.97;;
68050;SDS011;54839;51.364;7.246;2023-05-07T07:42:06;6.40;;;3.37;;
68050;SDS011;54839;51.364;7.246;2023-05-07T07:44:31;2.57;;;2.37;;
68050;SDS011;54839;51.364;7.246;2023-05-07T07:46:57;3.33;;;2.40;;
68050;SDS011;54839;51.364;7.246;2023-05-07T07:49:22;2.80;;;2.60;;
68050;SDS011;54839;51.364;7.246;2023-05-07T07:51:48;3.50;;;3.20;;
68050;SDS011;54839;51.364;7.246;2023-05-07T07:54:14;3.20;;;2.60;;
68050;SDS011;54839;51.364;7.246;2023-05-07T07:56:39;3.67;;;3.23;;
68050;SDS011;54839;51.364;7.246;2023-05-07T07:59:05;7.43;;;2.93;;
68050;SDS011;54839;51.364;7.246;2023-05-07T08:01:30;5.53;;;2.80;;
68050;SDS011;54839;51.364;7.246;2023-05-07T08:03:56;2.63;;;2.43;;
68050;SDS011;54839;51.364;7.246;2023-05-07T08:06:24;3.80;;;2.77;;
68050;SDS011;54839;51.364;7.246;2023-05-07T08:08:53;5.33;;;2.97;;
68050;SDS011;54839;51.364;7.246;2023-05-07T08:11:18;7.73;;;2.97;;
68050;SDS011;54839;51.364;7.246;2023-05-07T08:13:45;3.97;;;2.60;;
68050;SDS011;54839;51.364;7.246;2023-05-07T08:16:11;4.93;;;3.17;;
68050;SDS011;54839;51.364;7.246;2023-05-07T08:18:37;2.67;;;2.47;;
68050;SDS011;54839;51.364;7.246;2023-05-07T08:21:02;4.20;;;2.50;;
68050;SDS011;54839;51.364;7.246;2023-05-07T08:23:28;5.67;;;2.63;;
68050;SDS011;54839;51.364;7.246;2023-05-07T08:25:53;2.43;;;2.20;;
68050;SDS011;54839;51.364;7.246;2023-05-07T08:28:19;3.00;;;2.53;;
68050;SDS011;54839;51.364;7.246;2023-05-07T08:30:46;2.87;;;2.60;;
68050;SDS011;54839;51.364;7.246;2023-05-07T08:33:12;2.93;;;2.70;;
68050;SDS011;54839;51.364;7.246;2023-05-07T08:35:37;2.43;;;2.23;;
68050;SDS011;54839;51.364;7.246;2023-05-07T08:38:03;3.43;;;2.60;;
68050;SDS011;54839;51.364;7.246;2023-05-07T08:40:29;5.47;;;3.23;;
68050;SDS011;54839;51.364;7.246;2023-05-07T08:43:01;7.53;;;2.57;;
68050;SDS011;54839;51.364;7.246;2023-05-07T08:45:27;1.87;;;1.73;;
68050;SDS011;54839;51.364;7.246;2023-05-07T08:47:58;2.37;;;2.13;;
68050;SDS011;54839;51.364;7.246;2023-05-07T08:50:24;5.30;;;2.27;;
68050;SDS011;54839;51.364;7.246;2023-05-07T08:52:50;4.07;;;2.67;;
68050;SDS011;54839;51.364;7.246;2023-05-07T08:55:15;2.80;;;2.00;;
68050;SDS011;54839;51.364;7.246;2023-05-07T08:57:42;2.50;;;2.30;;
68050;SDS011;54839;51.364;7.246;2023-05-07T09:00:07;4.33;;;1.90;;
68050;SDS011;54839;51.364;7.246;2023-05-07T09:02:35;2.10;;;1.90;;
68050;SDS011;54839;51.364;7.246;2023-05-07T09:05:01;1.73;;;1.47;;
68050;SDS011;54839;51.364;7.246;2023-05-07T09:07:26;2.50;;;1.33;;
68050;SDS011;54839;51.364;7.246;2023-05-07T09:09:52;2.50;;;1.80;;
68050;SDS011;54839;51.364;7.246;2023-05-07T09:12:20;2.07;;;1.40;;
68050;SDS011;54839;51.364;7.246;2023-05-07T09:14:46;2.77;;;1.40;;
68050;SDS011;54839;51.364;7.246;2023-05-07T09:17:12;1.60;;;1.30;;
68050;SDS011;54839;51.364;7.246;2023-05-07T09:19:38;3.93;;;2.20;;
68050;SDS011;54839;51.364;7.246;2023-05-07T09:22:04;3.20;;;2.27;;
68050;SDS011;54839;51.364;7.246;2023-05-07T09:24:32;7.53;;;2.47;;
68050;SDS011;54839;51.364;7.246;2023-05-07T09:27:02;2.23;;;1.37;;
68050;SDS011;54839;51.364;7.246;2023-05-07T09:29:32;2.30;;;1.40;;
68050;SDS011;54839;51.364;7.246;2023-05-07T09:32:04;2.70;;;1.43;;
68050;SDS011;54839;51.364;7.246;2023-05-07T09:34:31;2.00;;;1.30;;
68050;SDS011;54839;51.364;7.246;2023-05-07T09:37:03;1.90;;;1.73;;
68050;SDS011;54839;51.364;7.246;2023-05-07T09:39:42;2.00;;;1.70;;
68050;SDS011;54839;51.364;7.246;2023-05-07T09:42:09;2.03;;;1.47;;
68050;SDS011;54839;51.364;7.246;2023-05-07T09:44:36;2.30;;;1.53;;
68050;SDS011;54839;51.364;7.246;2023-05-07T09:47:04;1.93;;;1.80;;
68050;SDS011;54839;51.364;7.246;2023-05-07T09:49:30;2.03;;;1.83;;
68050;SDS011;54839;51.364;7.246;2023-05-07T09:52:00;4.90;;;2.00;;
68050;SDS011;54839;51.364;7.246;2023-05-07T09:54:27;2.10;;;1.90;;
68050;SDS011;54839;51.364;7.246;2023-05-07T09:56:55;1.80;;;1.60;;
68050;SDS011;54839;51.364;7.246;2023-05-07T09:59:23;2.10;;;1.70;;
68050;SDS011;54839;51.364;7.246;2023-05-07T10:01:50;3.37;;;1.23;;
68050;SDS011;54839;51.364;7.246;2023-05-07T10:04:17;2.90;;;1.00;;
68050;SDS011;54839;51.364;7.246;2023-05-07T10:06:44;3.20;;;1.43;;
68050;SDS011;54839;51.364;7.246;2023-05-07T10:09:11;2.73;;;2.00;;
68050;SDS011;54839;51.364;7.246;2023-05-07T10:11:37;2.80;;;1.60;;
68050;SDS011;54839;51.364;7.246;2023-05-07T10:14:04;4.30;;;1.60;;
68050;SDS011;54839;51.364;7.246;2023-05-07T10:16:33;2.20;;;1.87;;
68050;SDS011;54839;51.364;7.246;2023-05-07T10:19:04;2.23;;;1.70;;
68050;SDS011;54839;51.364;7.246;2023-05-07T10:21:30;2.40;;;2.03;;
68050;SDS011;54839;51.364;7.246;2023-05-07T10:24:04;2.47;;;1.60;;
68050;SDS011;54839;51.364;7.246;2023-05-07T10:26:31;4.00;;;1.60;;
68050;SDS011;54839;51.364;7.246;2023-05-07T10:29:04;3.00;;;2.70;;
68050;SDS011;54839;51.364;7.246;2023-05-07T10:31:49;3.30;;;2.17;;
68050;SDS011;54839;51.364;7.246;2023-05-07T10:34:38;3.60;;;2.47;;
68050;SDS011;54839;51.364;7.246;2023-05-07T10:37:06;3.40;;;2.43;;
68050;SDS011;54839;51.364;7.246;2023-05-07T10:39:34;3.33;;;2.60;;
68050;SDS011;54839;51.364;7.246;2023-05-07T10:42:12;2.23;;;1.80;;
68050;SDS011;54839;51.364;7.246;2023-05-07T10:44:39;4.90;;;2.27;;
68050;SDS011;54839;51.364;7.246;2023-05-07T10:47:05;4.47;;;2.57;;
68050;SDS011;54839;51.364;7.246;2023-05-07T10:49:32;2.70;;;2.07;;
68050;SDS011;54839;51.364;7.246;2023-05-07T10:52:11;5.53;;;2.93;;
68050;SDS011;54839;51.364;7.246;2023-05-07T10:54:44;2.33;;;2.13;;
68050;SDS011;54839;51.364;7.246;2023-05-07T10:59:57;3.97;;;3.67;;
68050;SDS011;54839;51.364;7.246;2023-05-07T11:02:23;5.80;;;4.40;;
68050;SDS011;54839;51.364;7.246;2023-05-07T11:05:21;6.27;;;5.77;;
68050;SDS011;54839;51.364;7.246;2023-05-07T11:07:57;5.97;;;5.47;;
68050;SDS011;54839;51.364;7.246;2023-05-07T11:18:47;4.90;;;4.60;;
68050;SDS011;54839;51.364;7.246;2023-05-07T11:23:57;5.53;;;5.03;;
68050;SDS011;54839;51.364;7.246;2023-05-07T11:26:24;9.07;;;5.10;;
68050;SDS011;54839;51.364;7.246;2023-05-07T11:28:50;6.17;;;5.57;;
68050;SDS011;54839;51.364;7.246;2023-05-07T11:31:20;7.27;;;5.03;;
68050;SDS011;54839;51.364;7.246;2023-05-07T11:33:48;6.43;;;5.83;;
68050;SDS011;54839;51.364;7.246;2023-05-07T11:36:14;5.07;;;4.67;;
68050;SDS011;54839;51.364;7.246;2023-05-07T11:38:40;8.30;;;4.90;;
68050;SDS011;54839;51.364;7.246;2023-05-07T11:41:06;5.97;;;5.30;;
68050;SDS011;54839;51.364;7.246;2023-05-07T11:43:32;3.97;;;3.67;;
68050;SDS011;54839;51.364;7.246;2023-05-07T11:46:07;5.50;;;5.00;;
68050;SDS011;54839;51.364;7.246;2023-05-07T11:48:35;5.77;;;5.17;;
68050;SDS011;54839;51.364;7.246;2023-05-07T11:51:02;5.13;;;4.50;;
68050;SDS011;54839;51.364;7.246;2023-05-07T11:53:36;6.13;;;5.53;;
68050;SDS011;54839;51.364;7.246;2023-05-07T11:56:06;4.60;;;4.30;;
68050;SDS011;54839;51.364;7.246;2023-05-07T11:58:32;5.23;;;4.60;;
68050;SDS011;54839;51.364;7.246;2023-05-07T12:00:58;8.20;;;6.10;;
68050;SDS011;54839;51.364;7.246;2023-05-07T12:03:23;6.30;;;5.37;;
68050;SDS011;54839;51.364;7.246;2023-05-07T12:05:49;5.83;;;5.23;;
68050;SDS011;54839;51.364;7.246;2023-05-07T12:08:15;6.33;;;5.73;;
68050;SDS011;54839;51.364;7.246;2023-05-07T12:10:42;5.37;;;4.87;;
68050;SDS011;54839;51.364;7.246;2023-05-07T12:15:44;5.90;;;4.20;;
68050;SDS011;54839;51.364;7.246;2023-05-07T12:18:12;6.90;;;5.10;;
68050;SDS011;54839;51.364;7.246;2023-05-07T12:20:38;5.37;;;4.87;;
68050;SDS011;54839;51.364;7.246;2023-05-07T12:23:05;13.40;;;5.67;;
68050;SDS011;54839;51.364;7.246;2023-05-07T12:25:39;6.17;;;5.57;;
68050;SDS011;54839;51.364;7.246;2023-05-07T12:28:12;6.70;;;6.10;;
68050;SDS011;54839;51.364;7.246;2023-05-07T12:30:40;5.67;;;5.17;;
68050;SDS011;54839;51.364;7.246;2023-05-07T12:33:07;7.73;;;6.17;;
68050;SDS011;54839;51.364;7.246;2023-05-07T12:35:36;10.57;;;6.03;;
68050;SDS011;54839;51.364;7.246;2023-05-07T12:38:07;5.20;;;4.60;;
68050;SDS011;54839;51.364;7.246;2023-05-07T12:40:44;4.77;;;4.37;;
68050;SDS011;54839;51.364;7.246;2023-05-07T12:43:17;7.17;;;4.57;;
68050;SDS011;54839;51.364;7.246;2023-05-07T12:45:44;5.00;;;4.07;;
68050;SDS011;54839;51.364;7.246;2023-05-07T12:48:13;4.37;;;3.97;;
68050;SDS011;54839;51.364;7.246;2023-05-07T12:50:38;6.30;;;4.87;;
68050;SDS011;54839;51.364;7.246;2023-05-07T12:53:05;4.90;;;4.40;;
68050;SDS011;54839;51.364;7.246;2023-05-07T12:55:34;6.80;;;5.27;;
68050;SDS011;54839;51.364;7.246;2023-05-07T12:58:29;4.57;;;4.20;;
68050;SDS011;54839;51.364;7.246;2023-05-07T13:00:58;5.93;;;5.33;;
68050;SDS011;54839;51.364;7.246;2023-05-07T13:03:32;5.33;;;4.93;;
68050;SDS011;54839;51.364;7.246;2023-05-07T13:05:59;5.40;;;4.13;;
68050;SDS011;54839;51.364;7.246;2023-05-07T13:08:30;5.33;;;4.63;;
68050;SDS011;54839;51.364;7.246;2023-05-07T13:11:01;7.70;;;6.83;;
68050;SDS011;54839;51.364;7.246;2023-05-07T13:13:29;8.30;;;4.43;;
68050;SDS011;54839;51.364;7.246;2023-05-07T13:15:55;6.37;;;5.53;;
68050;SDS011;54839;51.364;7.246;2023-05-07T13:18:21;8.03;;;6.37;;
68050;SDS011;54839;51.364;7.246;2023-05-07T13:20:46;7.17;;;6.43;;
68050;SDS011;54839;51.364;7.246;2023-05-07T13:23:12;7.67;;;5.97;;
68050;SDS011;54839;51.364;7.246;2023-05-07T13:25:38;7.60;;;6.60;;
68050;SDS011;54839;51.364;7.246;2023-05-07T13:28:03;6.83;;;6.10;;
68050;SDS011;54839;51.364;7.246;2023-05-07T13:30:29;7.50;;;6.67;;
68050;SDS011;54839;51.364;7.246;2023-05-07T13:32:55;7.30;;;6.63;;
68050;SDS011;54839;51.364;7.246;2023-05-07T13:35:21;7.67;;;6.97;;
68050;SDS011;54839;51.364;7.246;2023-05-07T13:37:47;13.13;;;7.60;;
68050;SDS011;54839;51.364;7.246;2023-05-07T13:40:17;11.10;;;7.97;;
68050;SDS011;54839;51.364;7.246;2023-05-07T13:42:44;9.07;;;8.20;;
68050;SDS011;54839;51.364;7.246;2023-05-07T13:45:10;8.93;;;8.03;;
68050;SDS011;54839;51.364;7.246;2023-05-07T13:47:35;11.70;;;7.60;;
68050;SDS011;54839;51.364;7.246;2023-05-07T13:50:01;8.53;;;7.43;;
68050;SDS011;54839;51.364;7.246;2023-05-07T13:52:26;7.20;;;6.50;;
68050;SDS011;54839;51.364;7.246;2023-05-07T13:54:52;8.70;;;7.63;;
68050;SDS011;54839;51.364;7.246;2023-05-07T13:57:18;6.90;;;6.30;;
68050;SDS011;54839;51.364;7.246;2023-05-07T13:59:43;7.43;;;6.73;;
68050;SDS011;54839;51.364;7.246;2023-05-07T14:02:09;7.30;;;6.70;;
68050;SDS011;54839;51.364;7.246;2023-05-07T14:04:35;7.57;;;6.77;;
68050;SDS011;54839;51.364;7.246;2023-05-07T14:07:02;10.40;;;6.50;;
68050;SDS011;54839;51.364;7.246;2023-05-07T14:09:28;7.63;;;6.97;;
68050;SDS011;54839;51.364;7.246;2023-05-07T14:11:53;8.50;;;7.80;;
68050;SDS011;54839;51.364;7.246;2023-05-07T14:14:19;8.50;;;7.67;;
68050;SDS011;54839;51.364;7.246;2023-05-07T14:16:45;10.00;;;8.60;;
68050;SDS011;54839;51.364;7.246;2023-05-07T14:19:11;9.63;;;8.83;;
68050;SDS011;54839;51.364;7.246;2023-05-07T14:21:37;11.43;;;10.43;;
68050;SDS011;54839;51.364;7.246;2023-05-07T14:24:03;11.23;;;10.30;;
68050;SDS011;54839;51.364;7.246;2023-05-07T14:26:31;11.37;;;10.37;;
68050;SDS011;54839;51.364;7.246;2023-05-07T14:28:56;13.60;;;12.03;;
68050;SDS011;54839;51.364;7.246;2023-05-07T14:31:23;13.43;;;12.03;;
68050;SDS011;54839;51.364;7.246;2023-05-07T14:33:49;12.13;;;11.07;;
68050;SDS011;54839;51.364;7.246;2023-05-07T14:36:16;11.93;;;10.83;;
68050;SDS011;54839;51.364;7.246;2023-05-07T14:38:42;12.50;;;11.40;;
68050;SDS011;54839;51.364;7.246;2023-05-07T14:41:07;12.27;;;11.17;;
68050;SDS011;54839;51.364;7.246;2023-05-07T14:43:33;11.67;;;10.47;;
68050;SDS011;54839;51.364;7.246;2023-05-07T14:45:59;11.50;;;10.40;;
68050;SDS011;54839;51.364;7.246;2023-05-07T14:48:24;9.20;;;8.30;;
68050;SDS011;54839;51.364;7.246;2023-05-07T14:50:50;9.50;;;8.03;;
68050;SDS011;54839;51.364;7.246;2023-05-07T14:53:15;7.83;;;7.10;;
68050;SDS011;54839;51.364;7.246;2023-05-07T14:55:41;10.00;;;6.83;;
68050;SDS011;54839;51.364;7.246;2023-05-07T14:58:07;6.23;;;5.63;;
68050;SDS011;54839;51.364;7.246;2023-05-07T15:00:33;7.50;;;6.83;;